Sayner, Wisconsin
Current Conditions -  °F | °C
As of 11:55 AM on Friday 28 Nov 2014 (Local Time) from KARV Reporting Station
Light Snow Light Snow  
Wind Chill:   Ceiling: 3200
Heat Index: 14°   Visibility: 4mi
Dew Point: 11°   Wind: 6mph
Humidity: 88%   Direction: 140°SE
Pressure: 29.95"   Gusts: NA
Location:  45.99°N, 89.53°W
Report Text: KARV 281755Z AUTO 14005KT 4SM -SN SCT010 SCT022 OVC032 M10/M12 A2995 RMK AO2 T11011118 11101 21142
Loading
Personal Weather Stations






























Interactive Weather Map New forecast layout! Learn more

10-Day Weather Forecast

Advertisements
Track Severe Weather on mobile